Roby, Texas
Current Conditions -  °F | °C
As of 7:55 PM on Monday 20 Oct 2014 (Local Time) from KSWW Reporting Station
Clear Clear  
Wind Chill: 69°   Ceiling: Unl
Heat Index: 69°   Visibility: 10mi
Dew Point: 54°   Wind: 6mph
Humidity: 57%   Direction: 150°SSE
Pressure: 30.09"   Gusts: NA
Location:  32.74°N, 100.38°W
Report Text: KSWW 210055Z AUTO 15005KT 10SM CLR 21/12 A3009 RMK AO2 T02070120
Loading
Personal Weather Stations






























Interactive Weather Map
Tropical Storm Tracking
New forecast layout! Learn more

10-Day Weather Forecast

Advertisements
Track Severe Weather on mobile